Time;durP1;ratioP1;P1;durP2;ratioP2;P2;SDS_P1;SDS_P2;PMS_P1;PMS_P2;Temp;Humidity;BMP_temperature;BMP_pressure;BME280_temperature;BME280_humidity;BME280_pressure;Samples;Min_cycle;Max_cycle;Signal;HPM_P1;HPM_P2
2022/09/02 00:01:37;;;;;;;;;;;17.30;99.90;;;;;;5075748;28;19929;-54
2022/09/02 00:04:07;;;;;;;;;;;17.30;99.90;;;;;;5086322;28;19924;-57
2022/09/02 00:06:35;;;;;;;;;;;17.30;99.90;;;;;;5085116;28;20337;-56
2022/09/02 00:09:03;;;;;;;;;;;17.30;99.90;;;;;;5089467;28;19931;-58
2022/09/02 00:11:31;;;;;;;;;;;17.30;99.90;;;;;;5091722;28;19931;-57
2022/09/02 00:14:01;;;;;;;;;;;17.30;99.90;;;;;;5091508;28;20399;-57
2022/09/02 00:16:31;;;;;;;;;;;17.30;99.90;;;;;;5092079;28;20314;-57
2022/09/02 00:19:01;;;;;;;;;;;17.30;99.90;;;;;;5087582;28;20371;-56
2022/09/02 00:21:29;;;;;;;;;;;17.30;99.90;;;;;;5091625;28;19924;-56
2022/09/02 00:23:56;;;;;;;;;;;17.30;99.90;;;;;;5091226;28;19939;-56
2022/09/02 00:26:24;;;;;;;;;;;17.30;99.90;;;;;;5091653;28;19928;-55
2022/09/02 00:28:52;;;;;;;;;;;17.30;99.90;;;;;;5088753;28;19924;-57
2022/09/02 00:31:26;;;;;;;;;;;17.30;99.90;;;;;;5091459;28;19928;-57
2022/09/02 00:33:54;;;;;;;;;;;17.30;99.90;;;;;;5085425;28;20143;-57
2022/09/02 00:36:21;;;;;;;;;;;17.30;99.90;;;;;;5088338;28;19931;-57
2022/09/02 00:38:49;;;;;;;;;;;17.30;99.90;;;;;;5089146;28;20295;-57
2022/09/02 00:41:18;;;;;;;;;;;17.30;99.90;;;;;;5090156;28;19928;-57
2022/09/02 00:43:49;;;;;;;;;;;17.20;99.90;;;;;;5089272;28;19928;-54
2022/09/02 00:46:18;;;;;;;;;;;17.30;99.90;;;;;;5072254;28;19931;-57
2022/09/02 00:48:48;;;;;;;;;;;17.20;99.90;;;;;;5082565;28;20265;-56
2022/09/02 00:51:15;;;;;;;;;;;17.20;99.90;;;;;;5103167;28;19932;-57
2022/09/02 00:53:44;;;;;;;;;;;17.20;99.90;;;;;;5079437;28;19931;-59
2022/09/02 00:56:16;;;;;;;;;;;17.20;99.90;;;;;;5088423;28;19931;-58
2022/09/02 00:58:44;;;;;;;;;;;17.20;99.90;;;;;;5089489;28;19924;-55
2022/09/02 01:01:11;;;;;;;;;;;17.20;99.90;;;;;;5089650;28;19931;-57
2022/09/02 01:03:40;;;;;;;;;;;17.20;99.90;;;;;;5078094;28;20041;-56
2022/09/02 01:06:10;;;;;;;;;;;17.20;99.90;;;;;;5087876;28;19924;-58
2022/09/02 01:08:38;;;;;;;;;;;17.10;99.90;;;;;;5089335;28;19931;-57
2022/09/02 01:11:08;;;;;;;;;;;17.10;99.90;;;;;;5089670;28;19931;-58
2022/09/02 01:13:37;;;;;;;;;;;17.10;99.90;;;;;;5088326;28;19931;-57
2022/09/02 01:16:26;;;;;;;;;;;17.10;99.90;;;;;;5071786;28;20311;-55
2022/09/02 01:18:55;;;;;;;;;;;17.10;99.90;;;;;;5078386;28;19935;-58
2022/09/02 01:21:23;;;;;;;;;;;17.10;99.90;;;;;;5078716;28;20386;-58
2022/09/02 01:23:51;;;;;;;;;;;17.10;99.90;;;;;;5090278;28;19965;-58
2022/09/02 01:26:19;;;;;;;;;;;17.10;99.90;;;;;;5090507;28;19932;-60
2022/09/02 01:28:46;;;;;;;;;;;17.10;99.90;;;;;;5087296;28;19931;-57
2022/09/02 01:31:14;;;;;;;;;;;17.10;99.90;;;;;;5083613;28;19939;-57
2022/09/02 01:33:42;;;;;;;;;;;17.10;99.90;;;;;;5072582;28;20387;-59
2022/09/02 01:36:12;;;;;;;;;;;17.00;99.90;;;;;;5073631;28;19943;-57
2022/09/02 01:38:39;;;;;;;;;;;17.00;99.90;;;;;;5082278;28;20326;-57
2022/09/02 01:41:07;;;;;;;;;;;17.00;99.90;;;;;;5073072;28;19931;-56
2022/09/02 01:43:36;;;;;;;;;;;17.00;99.90;;;;;;5071936;28;19925;-56
2022/09/02 01:46:03;;;;;;;;;;;17.00;99.90;;;;;;5071708;28;19924;-56
2022/09/02 01:48:31;;;;;;;;;;;17.00;99.90;;;;;;5072176;28;19925;-56
2022/09/02 01:51:01;;;;;;;;;;;17.00;99.90;;;;;;5087110;28;19947;-55
2022/09/02 01:53:29;;;;;;;;;;;17.00;99.90;;;;;;5071277;28;19925;-58
2022/09/02 01:55:57;;;;;;;;;;;17.00;99.90;;;;;;5084632;28;19924;-58
2022/09/02 01:58:27;;;;;;;;;;;17.00;99.90;;;;;;5092606;28;19925;-55
2022/09/02 02:00:55;;;;;;;;;;;17.10;99.90;;;;;;5074850;28;19924;-55
2022/09/02 02:03:23;;;;;;;;;;;17.10;99.90;;;;;;5089596;28;19932;-55
2022/09/02 02:05:51;;;;;;;;;;;17.10;99.90;;;;;;5104266;28;19924;-56
2022/09/02 02:08:20;;;;;;;;;;;17.10;99.90;;;;;;5071384;28;19925;-58
2022/09/02 02:10:47;;;;;;;;;;;17.10;99.90;;;;;;5105054;28;19924;-57
2022/09/02 02:13:16;;;;;;;;;;;17.10;99.90;;;;;;5075298;28;20041;-55
2022/09/02 02:15:43;;;;;;;;;;;17.00;99.90;;;;;;5072907;28;19929;-57
2022/09/02 02:18:11;;;;;;;;;;;17.00;99.90;;;;;;5071030;28;19924;-55
2022/09/02 02:20:39;;;;;;;;;;;17.00;99.90;;;;;;5072030;28;20482;-56
2022/09/02 02:23:11;;;;;;;;;;;17.00;99.90;;;;;;5087802;28;19928;-55
2022/09/02 02:25:38;;;;;;;;;;;16.90;99.90;;;;;;5072278;28;19924;-55
2022/09/02 02:28:06;;;;;;;;;;;16.90;99.90;;;;;;5054646;28;19924;-55
2022/09/02 02:30:34;;;;;;;;;;;16.90;99.90;;;;;;5074387;28;19935;-56
2022/09/02 02:33:03;;;;;;;;;;;16.90;99.90;;;;;;5091057;28;20078;-56
2022/09/02 02:35:30;;;;;;;;;;;16.90;99.90;;;;;;5091228;28;20284;-57
2022/09/02 02:37:58;;;;;;;;;;;16.90;99.90;;;;;;5074287;28;19924;-57
2022/09/02 02:40:30;;;;;;;;;;;16.90;99.90;;;;;;5092323;28;19931;-58
2022/09/02 02:42:59;;;;;;;;;;;16.90;99.90;;;;;;5092414;28;20335;-58
2022/09/02 02:45:26;;;;;;;;;;;16.80;99.90;;;;;;5091035;28;19924;-57
2022/09/02 02:47:54;;;;;;;;;;;16.80;99.90;;;;;;5091009;28;19924;-58
2022/09/02 02:50:24;;;;;;;;;;;16.80;99.90;;;;;;5090925;28;20291;-56
2022/09/02 02:52:53;;;;;;;;;;;16.70;99.90;;;;;;5092153;28;19924;-58
2022/09/02 02:55:22;;;;;;;;;;;16.70;99.90;;;;;;5090801;28;19932;-57
2022/09/02 02:57:50;;;;;;;;;;;16.70;99.90;;;;;;5090911;28;19924;-57
2022/09/02 03:00:23;;;;;;;;;;;16.60;99.90;;;;;;5090955;28;19931;-57
2022/09/02 03:02:55;;;;;;;;;;;16.60;99.90;;;;;;5090964;28;20318;-55
2022/09/02 03:05:23;;;;;;;;;;;16.50;99.90;;;;;;5090895;28;19924;-58
2022/09/02 03:07:51;;;;;;;;;;;16.50;99.90;;;;;;5091931;28;20443;-56
2022/09/02 03:10:19;;;;;;;;;;;16.50;99.90;;;;;;5091935;28;19924;-57
2022/09/02 03:12:46;;;;;;;;;;;16.40;99.90;;;;;;5090651;28;19939;-58
2022/09/02 03:15:18;;;;;;;;;;;16.40;99.90;;;;;;5090764;28;19924;-56
2022/09/02 03:17:47;;;;;;;;;;;16.30;99.90;;;;;;5090490;28;19924;-55
2022/09/02 03:20:16;;;;;;;;;;;16.30;99.90;;;;;;5090512;28;19924;-56
2022/09/02 03:22:49;;;;;;;;;;;16.30;99.90;;;;;;5090653;28;19924;-58
2022/09/02 03:25:19;;;;;;;;;;;16.20;99.90;;;;;;5090594;28;19932;-57
2022/09/02 03:27:47;;;;;;;;;;;16.20;99.90;;;;;;5090465;28;19924;-57
2022/09/02 03:30:17;;;;;;;;;;;16.10;99.90;;;;;;5090358;28;19931;-57
2022/09/02 03:32:44;;;;;;;;;;;16.10;99.90;;;;;;5091768;28;20334;-55
2022/09/02 03:35:14;;;;;;;;;;;16.10;99.90;;;;;;5090313;28;19928;-57
2022/09/02 03:37:41;;;;;;;;;;;16.10;99.90;;;;;;5090367;28;19924;-58
2022/09/02 03:40:10;;;;;;;;;;;16.00;99.90;;;;;;5090313;28;19925;-58
2022/09/02 03:42:38;;;;;;;;;;;16.00;99.90;;;;;;5090479;28;19924;-58
2022/09/02 03:45:07;;;;;;;;;;;16.00;99.90;;;;;;5090491;28;20331;-58
2022/09/02 03:47:36;;;;;;;;;;;16.00;99.90;;;;;;5090168;28;19928;-58
2022/09/02 03:50:03;;;;;;;;;;;15.90;99.90;;;;;;5091409;28;19924;-57
2022/09/02 03:52:31;;;;;;;;;;;15.90;99.90;;;;;;5090415;28;19931;-57
2022/09/02 03:54:58;;;;;;;;;;;15.90;99.90;;;;;;5090541;28;19931;-58
2022/09/02 03:57:28;;;;;;;;;;;15.80;99.90;;;;;;5090335;28;19924;-57
2022/09/02 03:59:56;;;;;;;;;;;15.90;99.90;;;;;;5090232;28;19928;-57
2022/09/02 04:02:23;;;;;;;;;;;15.80;99.90;;;;;;5091321;28;19931;-57
2022/09/02 04:04:51;;;;;;;;;;;15.80;99.90;;;;;;5090354;28;19931;-58
2022/09/02 04:07:19;;;;;;;;;;;15.80;99.90;;;;;;5089664;28;20446;-58
2022/09/02 04:09:47;;;;;;;;;;;15.80;99.90;;;;;;5056603;28;20436;-58
2022/09/02 04:12:15;;;;;;;;;;;15.70;99.90;;;;;;5090283;28;19924;-58
2022/09/02 04:14:42;;;;;;;;;;;15.70;99.90;;;;;;5090215;28;19924;-57
2022/09/02 04:17:10;;;;;;;;;;;15.70;99.90;;;;;;5090224;28;19937;-58
2022/09/02 04:19:39;;;;;;;;;;;15.70;99.90;;;;;;5090095;28;19924;-59
2022/09/02 04:22:07;;;;;;;;;;;15.70;99.90;;;;;;5090154;28;20296;-59
2022/09/02 04:24:36;;;;;;;;;;;15.70;99.90;;;;;;5090127;28;19935;-55
2022/09/02 04:27:03;;;;;;;;;;;15.70;99.90;;;;;;5090156;28;19924;-55
2022/09/02 04:29:35;;;;;;;;;;;15.60;99.90;;;;;;5093831;28;19924;-56
2022/09/02 04:32:03;;;;;;;;;;;15.60;99.90;;;;;;5082279;28;19924;-55
2022/09/02 04:34:30;;;;;;;;;;;15.60;99.90;;;;;;5073195;28;19931;-57
2022/09/02 04:36:58;;;;;;;;;;;15.60;99.90;;;;;;5073473;28;19924;-56
2022/09/02 04:39:26;;;;;;;;;;;15.60;99.90;;;;;;5074534;28;19932;-55
2022/09/02 04:41:53;;;;;;;;;;;15.50;99.90;;;;;;5073312;28;19932;-56
2022/09/02 04:44:21;;;;;;;;;;;15.50;99.90;;;;;;5056826;28;19929;-56
2022/09/02 04:46:49;;;;;;;;;;;15.50;99.90;;;;;;5073155;28;19925;-55
2022/09/02 04:49:19;;;;;;;;;;;15.40;99.90;;;;;;5072101;28;19925;-55
2022/09/02 04:51:50;;;;;;;;;;;15.40;99.90;;;;;;5069571;28;19924;-55
2022/09/02 04:54:17;;;;;;;;;;;15.40;99.90;;;;;;5071203;28;19951;-55
2022/09/02 04:56:48;;;;;;;;;;;15.40;99.90;;;;;;5089602;28;19924;-55
2022/09/02 04:59:19;;;;;;;;;;;15.30;99.90;;;;;;5069484;28;20375;-55
2022/09/02 05:01:57;;;;;;;;;;;15.30;99.90;;;;;;5069695;28;20298;-56
2022/09/02 05:04:27;;;;;;;;;;;15.30;99.90;;;;;;5066039;28;19924;-58
2022/09/02 05:06:56;;;;;;;;;;;15.30;99.90;;;;;;5049491;28;20387;-56
2022/09/02 05:09:24;;;;;;;;;;;15.30;99.90;;;;;;5066035;28;20279;-56
2022/09/02 05:11:56;;;;;;;;;;;15.40;99.90;;;;;;5067885;28;20323;-57
2022/09/02 05:14:27;;;;;;;;;;;15.30;99.90;;;;;;5072372;28;19924;-55
2022/09/02 05:16:59;;;;;;;;;;;15.30;99.90;;;;;;5089612;28;19935;-57
2022/09/02 05:19:35;;;;;;;;;;;15.30;99.90;;;;;;5073844;28;19928;-56
2022/09/02 05:22:03;;;;;;;;;;;15.20;99.90;;;;;;5090593;28;19928;-55
2022/09/02 05:24:35;;;;;;;;;;;15.20;99.90;;;;;;5070529;28;19932;-57
2022/09/02 05:27:08;;;;;;;;;;;15.20;99.90;;;;;;5086641;28;19928;-57
2022/09/02 05:29:36;;;;;;;;;;;15.20;99.90;;;;;;5086041;28;19928;-54
2022/09/02 05:32:03;;;;;;;;;;;15.20;99.90;;;;;;5087951;28;19928;-57
2022/09/02 05:34:32;;;;;;;;;;;15.20;99.90;;;;;;5068965;28;19932;-54
2022/09/02 05:37:02;;;;;;;;;;;15.20;99.90;;;;;;5068971;28;19928;-54
2022/09/02 05:39:31;;;;;;;;;;;15.20;99.90;;;;;;5088954;28;20014;-55
2022/09/02 05:42:00;;;;;;;;;;;15.30;99.90;;;;;;5088744;28;19924;-54
2022/09/02 05:44:30;;;;;;;;;;;15.20;99.90;;;;;;5089794;28;20371;-56
2022/09/02 05:46:58;;;;;;;;;;;15.30;99.90;;;;;;5088959;28;19931;-55
2022/09/02 05:49:27;;;;;;;;;;;15.30;99.90;;;;;;5068812;28;19947;-56
2022/09/02 05:51:59;;;;;;;;;;;15.30;99.90;;;;;;5069995;28;19925;-56
2022/09/02 05:54:33;;;;;;;;;;;15.30;99.90;;;;;;5089019;28;19924;-54
2022/09/02 05:57:08;;;;;;;;;;;15.30;99.90;;;;;;5086321;28;19935;-54
2022/09/02 05:59:41;;;;;;;;;;;15.40;99.90;;;;;;5085411;28;19928;-57
2022/09/02 06:02:12;;;;;;;;;;;15.40;99.90;;;;;;5087115;28;19924;-55
2022/09/02 06:04:41;;;;;;;;;;;15.50;99.90;;;;;;5088722;28;19944;-55
2022/09/02 06:07:11;;;;;;;;;;;15.50;99.90;;;;;;5071328;28;19935;-54
2022/09/02 06:09:43;;;;;;;;;;;15.50;99.90;;;;;;5088199;28;20383;-55
2022/09/02 06:12:13;;;;;;;;;;;15.60;99.90;;;;;;5085350;28;20810;-56
2022/09/02 06:14:41;;;;;;;;;;;15.70;99.90;;;;;;5088289;28;19924;-55
2022/09/02 06:17:10;;;;;;;;;;;15.70;99.90;;;;;;5074394;28;19928;-57
2022/09/02 06:19:44;;;;;;;;;;;15.70;99.90;;;;;;5088353;28;19924;-56
2022/09/02 06:22:13;;;;;;;;;;;15.80;99.90;;;;;;5079737;28;19924;-56
2022/09/02 06:24:42;;;;;;;;;;;15.90;99.90;;;;;;5088369;28;19935;-55
2022/09/02 06:27:16;;;;;;;;;;;15.90;99.90;;;;;;5079256;28;19935;-55
2022/09/02 06:29:46;;;;;;;;;;;16.00;99.90;;;;;;5068375;28;19935;-57
2022/09/02 06:32:19;;;;;;;;;;;16.00;99.90;;;;;;5071839;28;20394;-57
2022/09/02 06:34:48;;;;;;;;;;;16.10;99.90;;;;;;5082018;28;20300;-57
2022/09/02 06:37:16;;;;;;;;;;;16.10;99.90;;;;;;5071039;28;19939;-56
2022/09/02 06:39:45;;;;;;;;;;;16.10;99.90;;;;;;5077207;28;19931;-57
2022/09/02 06:42:18;;;;;;;;;;;16.20;99.90;;;;;;5088781;28;19924;-56
2022/09/02 06:45:02;;;;;;;;;;;16.20;99.90;;;;;;5075054;28;20407;-57
2022/09/02 06:47:30;;;;;;;;;;;16.30;99.90;;;;;;5092779;28;19928;-54
2022/09/02 06:49:59;;;;;;;;;;;16.30;99.90;;;;;;5080206;28;19925;-58
2022/09/02 06:52:26;;;;;;;;;;;16.30;99.90;;;;;;5082351;28;19935;-54
2022/09/02 06:54:54;;;;;;;;;;;16.40;99.90;;;;;;5083323;28;20268;-57
2022/09/02 06:57:22;;;;;;;;;;;16.40;99.90;;;;;;5067782;28;20439;-57
2022/09/02 07:00:03;;;;;;;;;;;16.40;99.90;;;;;;5065135;28;20323;-55
2022/09/02 07:02:33;;;;;;;;;;;16.40;99.90;;;;;;5068235;28;19928;-58
2022/09/02 07:05:13;;;;;;;;;;;16.50;99.90;;;;;;5066998;28;19925;-57
2022/09/02 07:07:45;;;;;;;;;;;16.50;99.90;;;;;;5075914;28;20426;-57
2022/09/02 07:10:14;;;;;;;;;;;16.50;99.90;;;;;;5086899;28;20034;-56
2022/09/02 07:12:48;;;;;;;;;;;16.50;99.90;;;;;;5061863;28;19931;-58
2022/09/02 07:15:16;;;;;;;;;;;16.60;99.90;;;;;;5080672;28;19951;-59
2022/09/02 07:17:44;;;;;;;;;;;16.70;99.90;;;;;;5069834;28;19935;-57
2022/09/02 07:20:17;;;;;;;;;;;16.70;99.90;;;;;;5093757;28;19925;-55
2022/09/02 07:22:54;;;;;;;;;;;16.80;99.90;;;;;;5077138;28;19924;-55
2022/09/02 07:25:23;;;;;;;;;;;16.90;99.90;;;;;;5087809;28;19925;-55
2022/09/02 07:27:51;;;;;;;;;;;16.90;99.90;;;;;;5065411;28;19939;-55
2022/09/02 07:30:19;;;;;;;;;;;16.90;99.90;;;;;;5067098;28;20299;-56
2022/09/02 07:32:51;;;;;;;;;;;17.00;99.90;;;;;;5083844;28;19928;-55
2022/09/02 07:35:21;;;;;;;;;;;17.00;99.90;;;;;;5058470;28;19958;-56
2022/09/02 07:37:50;;;;;;;;;;;17.10;99.90;;;;;;5067265;28;19931;-55
2022/09/02 07:40:20;;;;;;;;;;;17.20;99.90;;;;;;5072883;28;19925;-55
2022/09/02 07:42:49;;;;;;;;;;;17.20;99.90;;;;;;5081561;28;19931;-55
2022/09/02 07:45:18;;;;;;;;;;;17.20;99.90;;;;;;5071340;28;19935;-55
2022/09/02 07:47:47;;;;;;;;;;;17.30;99.90;;;;;;5078140;28;20398;-55
2022/09/02 07:50:16;;;;;;;;;;;17.30;99.90;;;;;;5073919;28;19951;-55
2022/09/02 07:52:56;;;;;;;;;;;17.30;99.90;;;;;;5072781;28;19924;-56
2022/09/02 07:55:25;;;;;;;;;;;17.30;99.90;;;;;;5072576;28;20387;-56
2022/09/02 07:57:53;;;;;;;;;;;17.30;99.90;;;;;;5065516;28;19940;-56
2022/09/02 08:00:26;;;;;;;;;;;17.40;99.90;;;;;;5080188;28;19924;-56
2022/09/02 08:02:57;;;;;;;;;;;17.50;99.90;;;;;;5078589;28;19939;-58
2022/09/02 08:05:31;;;;;;;;;;;17.50;99.90;;;;;;5076444;28;19924;-58
2022/09/02 08:07:59;;;;;;;;;;;17.60;99.90;;;;;;5077793;28;19931;-57
2022/09/02 08:10:28;;;;;;;;;;;17.60;99.90;;;;;;5071980;28;20336;-57
2022/09/02 08:12:57;;;;;;;;;;;17.70;99.90;;;;;;5080338;28;20195;-59
2022/09/02 08:15:27;;;;;;;;;;;17.70;99.90;;;;;;5083638;28;19924;-58
2022/09/02 08:17:55;;;;;;;;;;;17.80;99.90;;;;;;5089836;28;19924;-58
2022/09/02 08:20:23;;;;;;;;;;;17.90;99.90;;;;;;5074710;28;19924;-57
2022/09/02 08:22:50;;;;;;;;;;;17.90;99.90;;;;;;5076902;28;20390;-57
2022/09/02 08:25:38;;;;;;;;;;;17.90;99.90;;;;;;5081566;28;19935;-57
2022/09/02 08:28:05;;;;;;;;;;;17.90;99.90;;;;;;5083171;28;19947;-56
2022/09/02 08:30:33;;;;;;;;;;;17.90;99.90;;;;;;5073597;28;19924;-55
2022/09/02 08:33:00;;;;;;;;;;;17.90;99.90;;;;;;5080284;28;20287;-56
2022/09/02 08:35:28;;;;;;;;;;;18.00;99.90;;;;;;5084978;28;19948;-56
2022/09/02 08:37:58;;;;;;;;;;;18.00;99.90;;;;;;5079200;28;20607;-56
2022/09/02 08:40:40;;;;;;;;;;;18.10;99.90;;;;;;5090335;28;20286;-58
2022/09/02 08:43:17;;;;;;;;;;;18.10;99.90;;;;;;5091191;28;19928;-57
2022/09/02 08:45:46;;;;;;;;;;;18.10;99.90;;;;;;5078618;28;20260;-59
2022/09/02 08:48:22;;;;;;;;;;;18.10;99.90;;;;;;5080986;28;20398;-58
2022/09/02 08:50:51;;;;;;;;;;;18.20;99.90;;;;;;5087378;28;19935;-58
2022/09/02 08:53:19;;;;;;;;;;;18.30;99.90;;;;;;5085852;28;20298;-56
2022/09/02 08:55:52;;;;;;;;;;;18.40;99.90;;;;;;5082346;28;20272;-58
2022/09/02 08:58:22;;;;;;;;;;;18.40;99.90;;;;;;5090981;28;19935;-56
2022/09/02 09:01:16;;;;;;;;;;;18.50;99.90;;;;;;5077470;28;19932;-57
2022/09/02 09:03:50;;;;;;;;;;;18.50;99.90;;;;;;5068969;28;19924;-57
2022/09/02 09:06:22;;;;;;;;;;;18.60;99.90;;;;;;5091021;28;19924;-57
2022/09/02 09:08:54;;;;;;;;;;;18.60;99.90;;;;;;5085221;28;19928;-58
2022/09/02 09:11:21;;;;;;;;;;;18.60;99.90;;;;;;5069409;28;19935;-58
2022/09/02 09:13:53;;;;;;;;;;;18.70;99.90;;;;;;5084814;28;19940;-57
2022/09/02 09:16:20;;;;;;;;;;;18.80;99.90;;;;;;5089064;28;19924;-58
2022/09/02 09:19:03;;;;;;;;;;;19.00;99.90;;;;;;5089371;28;20387;-58
2022/09/02 09:21:35;;;;;;;;;;;19.10;99.90;;;;;;5084885;28;20371;-58
2022/09/02 09:24:06;;;;;;;;;;;19.30;99.90;;;;;;5087892;28;19932;-55
2022/09/02 09:26:35;;;;;;;;;;;19.30;99.90;;;;;;5078232;28;20299;-56
2022/09/02 09:29:03;;;;;;;;;;;19.40;99.90;;;;;;5082049;28;20198;-57
2022/09/02 09:31:34;;;;;;;;;;;19.50;99.90;;;;;;5070860;28;19925;-58
2022/09/02 09:34:03;;;;;;;;;;;19.60;99.90;;;;;;5087360;28;19924;-56
2022/09/02 09:36:52;;;;;;;;;;;19.80;99.90;;;;;;5090276;28;19924;-57
2022/09/02 09:39:30;;;;;;;;;;;19.90;99.90;;;;;;5090399;28;19924;-55
2022/09/02 09:41:58;;;;;;;;;;;20.00;99.90;;;;;;5088881;28;19924;-56
2022/09/02 09:44:45;;;;;;;;;;;20.10;99.90;;;;;;5088982;28;19931;-55
2022/09/02 09:47:18;;;;;;;;;;;20.10;99.90;;;;;;5071250;28;19928;-56
2022/09/02 09:49:50;;;;;;;;;;;20.00;99.90;;;;;;5090214;28;20402;-55
2022/09/02 09:52:21;;;;;;;;;;;20.00;99.90;;;;;;5072656;28;19924;-56
2022/09/02 09:55:07;;;;;;;;;;;20.00;99.90;;;;;;5090411;28;20402;-56
2022/09/02 09:57:39;;;;;;;;;;;20.00;99.90;;;;;;5078608;28;19928;-58
2022/09/02 10:00:28;;;;;;;;;;;20.00;99.90;;;;;;5070988;28;19924;-57
2022/09/02 10:02:57;;;;;;;;;;;19.90;99.90;;;;;;5077836;28;19932;-56
2022/09/02 10:05:28;;;;;;;;;;;19.90;99.90;;;;;;5067012;28;19955;-58
2022/09/02 10:07:55;;;;;;;;;;;19.90;99.90;;;;;;5073254;28;19928;-58
2022/09/02 10:10:26;;;;;;;;;;;19.80;99.90;;;;;;5086357;28;19930;-56
2022/09/02 10:12:56;;;;;;;;;;;19.80;99.90;;;;;;5073447;28;19924;-59
2022/09/02 10:15:37;;;;;;;;;;;19.80;98.80;;;;;;5066593;28;19943;-58
2022/09/02 10:18:13;;;;;;;;;;;19.80;98.60;;;;;;5074038;28;19932;-57
2022/09/02 10:20:49;;;;;;;;;;;19.80;98.30;;;;;;5085926;28;19931;-59
2022/09/02 10:23:43;;;;;;;;;;;19.80;97.70;;;;;;5084627;28;19931;-56
2022/09/02 10:26:26;;;;;;;;;;;19.80;97.80;;;;;;5085487;28;19924;-60
2022/09/02 10:29:14;;;;;;;;;;;19.80;97.70;;;;;;5084741;28;19931;-58
2022/09/02 10:31:51;;;;;;;;;;;19.70;98.30;;;;;;5068783;28;19932;-57
2022/09/02 10:34:37;;;;;;;;;;;19.60;98.90;;;;;;5084659;28;19932;-56
2022/09/02 10:37:11;;;;;;;;;;;19.60;99.30;;;;;;5075306;28;19931;-56
2022/09/02 10:39:39;;;;;;;;;;;19.60;99.30;;;;;;5086177;28;20398;-57
2022/09/02 10:42:15;;;;;;;;;;;19.50;98.90;;;;;;5085945;28;19924;-58
2022/09/02 10:44:53;;;;;;;;;;;19.60;99.30;;;;;;5085438;28;20290;-57
2022/09/02 10:47:30;;;;;;;;;;;19.60;99.30;;;;;;5067772;28;19941;-58
2022/09/02 10:50:19;;;;;;;;;;;19.80;99.10;;;;;;5086104;28;19947;-59
2022/09/02 10:53:13;;;;;;;;;;;19.90;99.00;;;;;;5084228;28;19924;-57
2022/09/02 10:55:51;;;;;;;;;;;20.10;98.10;;;;;;5074463;28;19999;-58
2022/09/02 10:58:37;;;;;;;;;;;20.30;97.70;;;;;;5067961;28;19992;-58
2022/09/02 11:01:06;;;;;;;;;;;20.50;97.00;;;;;;5074963;28;19924;-59
2022/09/02 11:03:47;;;;;;;;;;;20.60;96.30;;;;;;5067271;28;19925;-59
2022/09/02 11:06:27;;;;;;;;;;;20.70;96.30;;;;;;5065699;28;19925;-58
2022/09/02 11:09:25;;;;;;;;;;;20.80;96.50;;;;;;5080890;28;19928;-57
2022/09/02 11:11:59;;;;;;;;;;;20.80;96.30;;;;;;5076966;28;19935;-58
2022/09/02 11:14:33;;;;;;;;;;;20.90;96.10;;;;;;5083016;28;19924;-56
2022/09/02 11:17:01;;;;;;;;;;;21.00;95.90;;;;;;5069519;28;19974;-57
2022/09/02 11:19:52;;;;;;;;;;;21.00;95.40;;;;;;5065621;28;19935;-57
2022/09/02 11:22:28;;;;;;;;;;;21.10;95.10;;;;;;5067295;28;20384;-57
2022/09/02 11:24:56;;;;;;;;;;;21.20;95.00;;;;;;5080690;28;19935;-61
2022/09/02 11:27:30;;;;;;;;;;;21.30;94.50;;;;;;5066544;28;19925;-57
2022/09/02 11:30:15;;;;;;;;;;;21.30;94.80;;;;;;5064922;28;19934;-58
2022/09/02 11:32:51;;;;;;;;;;;21.30;94.50;;;;;;5084933;28;20106;-58
2022/09/02 11:35:26;;;;;;;;;;;21.40;94.60;;;;;;5085384;28;19939;-56
2022/09/02 11:37:53;;;;;;;;;;;21.40;94.90;;;;;;5075528;28;20297;-57
2022/09/02 11:40:33;;;;;;;;;;;21.40;95.00;;;;;;5074421;28;19931;-58
2022/09/02 11:43:06;;;;;;;;;;;21.40;95.00;;;;;;5085892;28;20106;-57
2022/09/02 11:45:40;;;;;;;;;;;21.40;95.20;;;;;;5073846;28;19925;-54
2022/09/02 11:48:19;;;;;;;;;;;21.40;95.70;;;;;;5077894;28;19947;-57
2022/09/02 11:51:05;;;;;;;;;;;21.40;95.70;;;;;;5089299;28;20303;-57
2022/09/02 11:53:43;;;;;;;;;;;21.40;95.60;;;;;;5086297;28;19931;-56
2022/09/02 11:56:17;;;;;;;;;;;21.50;95.80;;;;;;5080267;28;20303;-56
2022/09/02 11:58:47;;;;;;;;;;;21.60;95.70;;;;;;5086459;28;20520;-56
2022/09/02 12:01:14;;;;;;;;;;;21.70;95.60;;;;;;5086551;28;20256;-57
2022/09/02 12:03:50;;;;;;;;;;;21.70;95.30;;;;;;5086042;28;19923;-56
2022/09/02 12:06:58;;;;;;;;;;;21.70;95.30;;;;;;5078509;28;20390;-57
2022/09/02 12:09:51;;;;;;;;;;;21.70;95.20;;;;;;5086984;28;19924;-56
2022/09/02 12:12:37;;;;;;;;;;;21.70;94.40;;;;;;5087208;28;19956;-56
2022/09/02 12:15:05;;;;;;;;;;;21.70;94.20;;;;;;5079015;28;20284;-55
2022/09/02 12:17:38;;;;;;;;;;;21.60;94.10;;;;;;5071617;28;19931;-56
2022/09/02 12:20:30;;;;;;;;;;;21.60;94.10;;;;;;5087070;28;19928;-55
2022/09/02 12:22:59;;;;;;;;;;;21.50;94.10;;;;;;5091550;28;19924;-55
2022/09/02 12:25:32;;;;;;;;;;;21.50;94.10;;;;;;5083408;28;19924;-57
2022/09/02 12:28:20;;;;;;;;;;;21.50;94.40;;;;;;5072473;28;19924;-57
2022/09/02 12:30:54;;;;;;;;;;;21.50;94.60;;;;;;5070226;28;19939;-57
2022/09/02 12:33:31;;;;;;;;;;;21.50;94.70;;;;;;5082390;28;19924;-58
2022/09/02 12:35:59;;;;;;;;;;;21.50;94.90;;;;;;5087420;28;19935;-56
2022/09/02 12:38:28;;;;;;;;;;;21.50;94.40;;;;;;5091332;28;20395;-57
2022/09/02 12:41:05;;;;;;;;;;;21.50;94.00;;;;;;5091680;28;19925;-58
2022/09/02 12:43:40;;;;;;;;;;;21.50;94.20;;;;;;5086428;28;20002;-59
2022/09/02 12:46:31;;;;;;;;;;;21.50;93.90;;;;;;5086689;28;20411;-57
2022/09/02 12:49:02;;;;;;;;;;;21.60;94.10;;;;;;5087735;28;20407;-56
2022/09/02 12:51:48;;;;;;;;;;;21.60;93.20;;;;;;5091213;28;20272;-57
2022/09/02 12:54:17;;;;;;;;;;;21.60;93.60;;;;;;5089068;28;19924;-58
2022/09/02 12:56:47;;;;;;;;;;;21.70;93.60;;;;;;5072155;28;19928;-58
2022/09/02 12:59:24;;;;;;;;;;;21.70;93.80;;;;;;5085175;28;20521;-56
2022/09/02 13:02:04;;;;;;;;;;;21.80;93.50;;;;;;5083487;28;20380;-58
2022/09/02 13:04:51;;;;;;;;;;;21.80;93.70;;;;;;5081596;28;19924;-58
2022/09/02 13:07:30;;;;;;;;;;;22.20;94.30;;;;;;5081330;28;19943;-58
2022/09/02 13:10:16;;;;;;;;;;;22.50;93.60;;;;;;5081965;28;19931;-58
2022/09/02 13:13:13;;;;;;;;;;;22.80;93.10;;;;;;5088899;28;20383;-58
2022/09/02 13:15:46;;;;;;;;;;;23.00;92.50;;;;;;5081476;28;19931;-59
2022/09/02 13:18:42;;;;;;;;;;;23.20;92.50;;;;;;5080115;28;20428;-59
2022/09/02 13:21:30;;;;;;;;;;;23.40;92.50;;;;;;5083654;28;19935;-58
2022/09/02 13:24:03;;;;;;;;;;;24.00;92.50;;;;;;5074835;28;19935;-57
2022/09/02 13:26:50;;;;;;;;;;;24.70;90.80;;;;;;5078379;28;19932;-56
2022/09/02 13:29:22;;;;;;;;;;;25.30;89.40;;;;;;5077335;28;19925;-57
2022/09/02 13:32:03;;;;;;;;;;;25.50;87.60;;;;;;5084358;28;19943;-56
2022/09/02 13:34:31;;;;;;;;;;;25.80;88.40;;;;;;5087614;28;20485;-56
2022/09/02 13:36:58;;;;;;;;;;;26.20;88.70;;;;;;5090404;28;19924;-56
2022/09/02 13:39:26;;;;;;;;;;;26.50;86.20;;;;;;5086763;28;20303;-57
2022/09/02 13:41:54;;;;;;;;;;;26.70;84.50;;;;;;5076841;28;19928;-56
2022/09/02 13:44:24;;;;;;;;;;;26.80;82.90;;;;;;5062163;28;19928;-56
2022/09/02 13:46:53;;;;;;;;;;;27.00;81.60;;;;;;5067053;28;20447;-57
2022/09/02 13:49:25;;;;;;;;;;;27.20;80.20;;;;;;5066404;28;19929;-56
2022/09/02 13:51:53;;;;;;;;;;;27.30;79.80;;;;;;5077742;28;19924;-57
2022/09/02 13:54:32;;;;;;;;;;;27.50;79.30;;;;;;5079263;28;19936;-56
2022/09/02 13:57:01;;;;;;;;;;;27.60;78.00;;;;;;5068426;28;20273;-57
2022/09/02 13:59:32;;;;;;;;;;;27.40;77.30;;;;;;5067662;28;19932;-58
2022/09/02 14:02:14;;;;;;;;;;;27.20;77.70;;;;;;5075687;28;19931;-57
2022/09/02 14:04:42;;;;;;;;;;;26.90;77.60;;;;;;5085027;28;19928;-57
2022/09/02 14:07:09;;;;;;;;;;;26.70;78.50;;;;;;5085239;28;19932;-56
2022/09/02 14:09:38;;;;;;;;;;;26.50;78.30;;;;;;5079455;28;19924;-57
2022/09/02 14:12:06;;;;;;;;;;;26.30;77.80;;;;;;5066916;28;20015;-57
2022/09/02 14:14:34;;;;;;;;;;;26.40;78.20;;;;;;5070512;28;20367;-57
2022/09/02 14:17:18;;;;;;;;;;;26.60;78.50;;;;;;5071576;28;19931;-58
2022/09/02 14:19:47;;;;;;;;;;;26.90;77.80;;;;;;5067330;28;19951;-59
2022/09/02 14:22:26;;;;;;;;;;;27.00;76.90;;;;;;5063359;28;19932;-58
2022/09/02 14:24:54;;;;;;;;;;;27.20;76.00;;;;;;5076219;28;19932;-59
2022/09/02 14:27:22;;;;;;;;;;;27.30;75.30;;;;;;5077450;28;20332;-58
2022/09/02 14:29:56;;;;;;;;;;;27.30;75.10;;;;;;5085099;28;19924;-59
2022/09/02 14:32:26;;;;;;;;;;;27.30;75.80;;;;;;5070198;28;19929;-58
2022/09/02 14:35:20;;;;;;;;;;;27.20;74.30;;;;;;5066611;28;19924;-57
2022/09/02 14:37:56;;;;;;;;;;;27.00;73.20;;;;;;5071469;28;19994;-56
2022/09/02 14:40:35;;;;;;;;;;;26.70;72.60;;;;;;5070610;28;20300;-55
2022/09/02 14:43:03;;;;;;;;;;;26.40;72.80;;;;;;5054530;28;20398;-56
2022/09/02 14:45:32;;;;;;;;;;;26.00;73.90;;;;;;5081270;28;19935;-56